createdAt,value
2018-12-21T00:02:50.443Z,68.38
2018-12-21T00:06:54.946Z,68.65
2018-12-21T00:10:58.910Z,68.62
2018-12-21T00:15:02.978Z,68.80
2018-12-21T00:19:06.942Z,69.25
2018-12-21T00:23:11.009Z,69.28
2018-12-21T00:27:14.979Z,69.41
2018-12-21T00:31:24.891Z,69.61
2018-12-21T00:35:34.485Z,69.41
2018-12-21T00:39:44.189Z,69.43
2018-12-21T00:43:50.142Z,69.46
2018-12-21T00:47:54.281Z,69.50
2018-12-21T00:51:58.250Z,69.62
2018-12-21T00:56:02.442Z,69.46
2018-12-21T01:00:11.952Z,69.37
2018-12-21T01:04:16.101Z,68.88
2018-12-21T01:08:20.122Z,68.50
2018-12-21T01:12:24.279Z,68.69
2018-12-21T01:16:28.445Z,68.82
2018-12-21T01:20:32.585Z,68.51
2018-12-21T01:24:36.557Z,68.72
2018-12-21T01:28:40.634Z,68.96
2018-12-21T01:32:44.591Z,68.99
2018-12-21T01:36:48.671Z,69.30
2018-12-21T01:40:52.641Z,69.36
2018-12-21T01:44:56.705Z,69.46
2018-12-21T01:49:00.669Z,69.22
2018-12-21T01:53:04.750Z,69.63
2018-12-21T01:57:08.720Z,69.62
2018-12-21T02:01:12.786Z,70.10
2018-12-21T02:05:16.763Z,70.41
2018-12-21T02:09:20.826Z,70.25
2018-12-21T02:13:24.789Z,69.93
2018-12-21T02:17:28.873Z,70.01
2018-12-21T02:21:32.842Z,69.88
2018-12-21T02:25:36.906Z,70.01
2018-12-21T02:29:40.881Z,70.02
2018-12-21T02:33:44.949Z,69.82
2018-12-21T02:37:48.922Z,70.19
2018-12-21T02:41:53.085Z,70.03
2018-12-21T02:45:57.053Z,69.93
2018-12-21T02:50:01.234Z,70.24
2018-12-21T02:54:05.203Z,70.23
2018-12-21T02:58:09.313Z,70.18
2018-12-21T03:02:13.266Z,70.24
2018-12-21T03:06:17.413Z,70.34
2018-12-21T03:10:21.546Z,69.94
2018-12-21T03:14:25.671Z,70.26
2018-12-21T03:18:29.637Z,70.24
2018-12-21T03:22:33.706Z,69.60
2018-12-21T03:26:37.774Z,70.00
2018-12-21T03:30:41.846Z,69.69
2018-12-21T03:34:45.811Z,69.76
2018-12-21T03:38:49.988Z,69.33
2018-12-21T03:42:53.953Z,68.99
2018-12-21T03:46:58.022Z,68.79
2018-12-21T03:51:02.000Z,68.55
2018-12-21T03:55:06.467Z,68.65
2018-12-21T03:59:10.439Z,68.53
2018-12-21T04:03:14.518Z,68.60
2018-12-21T04:07:18.483Z,68.57
2018-12-21T04:11:25.834Z,68.21
2018-12-21T04:15:29.814Z,67.71
2018-12-21T04:19:33.873Z,67.11
2018-12-21T04:23:37.840Z,67.35
2018-12-21T04:27:41.931Z,67.41
2018-12-21T04:31:45.893Z,66.92
2018-12-21T04:35:50.061Z,67.23
2018-12-21T04:39:54.039Z,67.11
2018-12-21T04:43:58.103Z,67.35
2018-12-21T04:48:02.069Z,66.92
2018-12-21T04:52:06.138Z,66.78
2018-12-21T04:56:10.101Z,67.11
2018-12-21T05:00:14.170Z,67.41
2018-12-21T05:04:20.240Z,67.15
2018-12-21T05:08:24.466Z,67.64
2018-12-21T05:12:28.973Z,67.66
2018-12-21T05:16:33.333Z,68.04
2018-12-21T05:20:37.290Z,68.03
2018-12-21T05:24:41.552Z,67.88
2018-12-21T05:28:45.524Z,67.96
2018-12-21T05:32:49.746Z,67.40
2018-12-21T05:36:53.721Z,67.19
2018-12-21T05:40:57.853Z,66.80
2018-12-21T05:45:01.846Z,66.79
2018-12-21T05:49:05.997Z,67.64
2018-12-21T05:53:10.001Z,67.40
2018-12-21T05:57:14.137Z,67.69
2018-12-21T06:01:18.107Z,68.34
2018-12-21T06:05:22.184Z,68.37
2018-12-21T06:09:26.148Z,68.75
2018-12-21T06:13:30.333Z,68.28
2018-12-21T06:17:34.289Z,67.59
2018-12-21T06:21:38.471Z,66.86
2018-12-21T06:25:42.443Z,67.29
2018-12-21T06:29:46.719Z,67.41
2018-12-21T06:33:50.685Z,67.17
2018-12-21T06:37:54.862Z,66.88
2018-12-21T06:41:58.822Z,66.51
2018-12-21T06:46:02.878Z,66.05
2018-12-21T06:50:07.362Z,66.33
2018-12-21T06:54:11.724Z,66.63
2018-12-21T06:58:15.697Z,66.10
2018-12-21T07:02:19.792Z,65.67
2018-12-21T07:06:23.761Z,65.01
2018-12-21T07:10:27.940Z,65.53
2018-12-21T07:14:31.959Z,63.19
2018-12-21T07:18:36.082Z,63.42
2018-12-21T07:22:40.059Z,64.26
2018-12-21T07:26:44.117Z,63.58
2018-12-21T07:30:48.083Z,63.88
2018-12-21T07:34:52.157Z,65.14
2018-12-21T07:38:56.162Z,65.74
2018-12-21T07:43:00.300Z,66.03
2018-12-21T07:47:04.272Z,66.10
2018-12-21T07:51:08.337Z,66.20
2018-12-21T07:55:12.310Z,66.08
2018-12-21T07:59:16.485Z,65.85
2018-12-21T08:03:20.466Z,65.91
2018-12-21T08:07:24.629Z,65.43
2018-12-21T08:11:28.590Z,65.29
2018-12-21T08:15:32.765Z,64.86
2018-12-21T08:19:36.730Z,64.45
2018-12-21T08:23:44.390Z,64.55
2018-12-21T08:27:46.777Z,63.24
2018-12-21T08:31:50.897Z,62.95
2018-12-21T08:35:54.869Z,62.38
2018-12-21T08:39:58.936Z,61.90
2018-12-21T08:44:02.909Z,60.71
2018-12-21T08:48:06.977Z,59.65
2018-12-21T08:52:10.933Z,59.87
2018-12-21T08:56:15.017Z,60.01
2018-12-21T09:00:18.973Z,60.85
2018-12-21T09:04:23.056Z,61.45
2018-12-21T09:08:27.021Z,60.61
2018-12-21T09:12:31.093Z,58.22
2018-12-21T09:16:35.116Z,58.77
2018-12-21T09:20:39.236Z,58.96
2018-12-21T09:24:43.208Z,56.58
2018-12-21T09:28:47.269Z,55.51
2018-12-21T09:32:51.241Z,54.87
2018-12-21T09:36:55.293Z,55.03
2018-12-21T09:40:59.262Z,55.89
2018-12-21T09:45:03.350Z,55.76
2018-12-21T09:49:07.304Z,55.98
2018-12-21T09:53:11.361Z,56.56
2018-12-21T09:57:15.375Z,57.02
2018-12-21T10:01:21.548Z,57.36
2018-12-21T10:05:25.489Z,57.96
2018-12-21T10:09:29.788Z,58.76
2018-12-21T10:13:33.736Z,58.87
2018-12-21T10:17:37.812Z,59.03
2018-12-21T10:21:41.757Z,59.77
2018-12-21T10:25:45.872Z,60.60
2018-12-21T10:29:49.869Z,61.08
2018-12-21T10:33:54.013Z,61.71
2018-12-21T10:37:57.960Z,62.21
2018-12-21T10:42:02.161Z,62.55
2018-12-21T10:46:06.105Z,62.69
2018-12-21T10:50:10.506Z,62.76
2018-12-21T10:54:14.445Z,62.89
2018-12-21T10:58:18.541Z,62.51
2018-12-21T11:02:22.480Z,62.02
2018-12-21T11:06:27.507Z,62.41
2018-12-21T11:10:31.445Z,62.69
2018-12-21T11:14:35.805Z,62.90
2018-12-21T11:18:39.774Z,62.64
2018-12-21T11:22:43.892Z,62.43
2018-12-21T11:26:47.831Z,62.24
2018-12-21T11:30:51.933Z,62.31
2018-12-21T11:34:55.892Z,62.23
2018-12-21T11:39:00.072Z,62.49
2018-12-21T11:43:04.013Z,62.47
2018-12-21T11:47:08.218Z,62.60
2018-12-21T11:51:12.157Z,62.12
2018-12-21T11:55:16.256Z,62.37
2018-12-21T11:59:20.256Z,61.86
2018-12-21T12:03:24.401Z,61.84
2018-12-21T12:07:28.346Z,61.50
2018-12-21T12:11:32.437Z,61.82
2018-12-21T12:15:36.381Z,61.75
2018-12-21T12:19:40.581Z,61.47
2018-12-21T12:23:44.525Z,61.83
2018-12-21T12:27:48.620Z,60.48
2018-12-21T12:31:52.568Z,60.60
2018-12-21T12:35:56.767Z,59.97
2018-12-21T12:40:00.812Z,59.44
2018-12-21T12:44:05.058Z,59.25
2018-12-21T12:48:08.996Z,59.38
2018-12-21T12:52:13.046Z,59.03
2018-12-21T12:56:16.985Z,59.65
2018-12-21T13:00:21.085Z,58.69
2018-12-21T13:04:25.043Z,58.90
2018-12-21T13:08:29.185Z,59.11
2018-12-21T13:12:33.132Z,58.64
2018-12-21T13:16:37.168Z,58.95
2018-12-21T13:20:41.280Z,59.46
2018-12-21T13:24:45.413Z,59.33
2018-12-21T13:28:49.358Z,59.36
2018-12-21T13:32:53.468Z,59.37
2018-12-21T13:36:57.404Z,59.15
2018-12-21T13:41:01.499Z,60.05
2018-12-21T13:45:08.274Z,59.75
2018-12-21T13:49:12.409Z,59.44
2018-12-21T13:53:16.373Z,58.71
2018-12-21T13:57:20.434Z,58.64
2018-12-21T14:01:24.368Z,58.47
2018-12-21T14:05:28.487Z,57.99
2018-12-21T14:09:32.551Z,58.14
2018-12-21T14:13:36.825Z,57.84
2018-12-21T14:17:40.812Z,57.58
2018-12-21T14:21:46.936Z,57.69
2018-12-21T14:25:50.878Z,58.21
2018-12-21T14:29:54.965Z,58.26
2018-12-21T14:33:58.901Z,58.58
2018-12-21T14:38:02.992Z,58.61
2018-12-21T14:42:06.965Z,58.45
2018-12-21T14:46:11.038Z,58.97
2018-12-21T14:50:15.008Z,59.19
2018-12-21T14:54:19.314Z,59.68
2018-12-21T14:58:23.240Z,60.08
2018-12-21T15:02:27.320Z,59.88
2018-12-21T15:06:31.367Z,59.66
2018-12-21T15:10:35.511Z,59.15
2018-12-21T15:14:39.520Z,58.79
2018-12-21T15:18:43.620Z,58.78
2018-12-21T15:22:47.670Z,59.33
2018-12-21T15:26:51.749Z,57.87
2018-12-21T15:30:55.700Z,57.59
2018-12-21T15:34:59.784Z,57.31
2018-12-21T15:39:05.672Z,56.73
2018-12-21T15:43:09.948Z,56.72
2018-12-21T15:47:14.105Z,56.67
2018-12-21T15:51:18.659Z,56.57
2018-12-21T15:55:22.811Z,56.87
2018-12-21T15:59:26.833Z,56.02
2018-12-21T16:03:30.768Z,55.97
2018-12-21T16:07:34.917Z,54.96
2018-12-21T16:11:38.876Z,55.33
2018-12-21T16:15:42.903Z,54.17
2018-12-21T16:19:46.839Z,53.90
2018-12-21T16:23:51.104Z,54.35
2018-12-21T16:27:55.062Z,53.51
2018-12-21T16:31:59.140Z,53.35
2018-12-21T16:36:03.118Z,52.40
2018-12-21T16:40:08.670Z,52.45
2018-12-21T16:44:12.632Z,53.20
2018-12-21T16:48:16.687Z,52.81
2018-12-21T16:52:20.645Z,51.54
2018-12-21T16:56:24.792Z,52.16
2018-12-21T17:00:28.809Z,51.12
2018-12-21T17:04:32.941Z,51.92
2018-12-21T17:08:36.884Z,50.46
2018-12-21T17:12:40.980Z,51.61
2018-12-21T17:16:44.916Z,51.44
2018-12-21T17:20:48.982Z,50.21
2018-12-21T17:24:56.269Z,50.96
2018-12-21T17:29:00.429Z,50.15
2018-12-21T17:33:04.401Z,49.17
2018-12-21T17:37:08.476Z,49.56
2018-12-21T17:41:12.421Z,49.32
2018-12-21T17:45:16.518Z,49.24
2018-12-21T17:49:20.557Z,49.99
2018-12-21T17:53:24.666Z,49.72
2018-12-21T17:57:28.612Z,51.24
2018-12-21T18:01:32.798Z,51.13
2018-12-21T18:05:36.740Z,51.47
2018-12-21T18:09:40.837Z,51.62
2018-12-21T18:13:44.785Z,52.59
2018-12-21T18:17:48.829Z,52.07
2018-12-21T18:21:52.820Z,53.41
2018-12-21T18:25:56.921Z,53.33
2018-12-21T18:30:00.874Z,53.33
2018-12-21T18:34:07.821Z,53.03
2018-12-21T18:38:11.841Z,52.10
2018-12-21T18:42:15.937Z,52.95
2018-12-21T18:46:19.908Z,52.19
2018-12-21T18:50:24.017Z,51.27
2018-12-21T18:54:27.970Z,50.01
2018-12-21T18:58:32.057Z,50.57
2018-12-21T19:02:36.021Z,50.60
2018-12-21T19:06:40.185Z,50.25
2018-12-21T19:10:44.136Z,50.67
2018-12-21T19:14:48.180Z,50.60
2018-12-21T19:18:52.166Z,50.92
2018-12-21T19:22:56.205Z,52.29
2018-12-21T19:27:00.212Z,52.33
2018-12-21T19:31:04.312Z,53.54
2018-12-21T19:35:09.271Z,53.69
2018-12-21T19:40:09.090Z,53.93
2018-12-21T19:43:13.157Z,53.61
2018-12-21T19:46:17.226Z,54.11
2018-12-21T19:49:21.168Z,54.60
2018-12-21T19:52:25.247Z,54.47
2018-12-21T19:55:38.360Z,55.09
2018-12-21T19:58:42.416Z,54.88
2018-12-21T20:01:46.368Z,55.14
2018-12-21T20:04:50.509Z,56.29
2018-12-21T20:07:54.472Z,56.63
2018-12-21T20:10:58.505Z,57.49
2018-12-21T20:14:02.449Z,57.78
2018-12-21T20:17:06.560Z,58.36
2018-12-21T20:20:10.585Z,58.30
2018-12-21T20:23:14.695Z,58.82
2018-12-21T20:26:18.654Z,60.35
2018-12-21T20:29:22.728Z,60.84
2018-12-21T20:32:26.657Z,61.90
2018-12-21T20:35:30.951Z,62.24
2018-12-21T20:38:34.892Z,62.97
2018-12-21T20:41:38.974Z,63.26
2018-12-21T20:44:42.913Z,63.56
2018-12-21T20:47:47.005Z,64.03
2018-12-21T20:50:51.873Z,64.84
2018-12-21T20:53:55.957Z,65.38
2018-12-21T20:56:59.922Z,66.88
2018-12-21T21:00:14.321Z,67.38
2018-12-21T21:03:18.281Z,67.84
2018-12-21T21:06:22.348Z,68.59
2018-12-21T21:09:26.349Z,69.43
2018-12-21T21:12:30.580Z,69.07
2018-12-21T21:15:34.520Z,69.74
2018-12-21T21:18:38.601Z,69.14
2018-12-21T21:21:42.557Z,69.37
2018-12-21T21:24:46.577Z,69.81
2018-12-21T21:27:50.516Z,69.24
2018-12-21T21:30:54.768Z,69.82
2018-12-21T21:33:58.741Z,69.71
2018-12-21T21:37:02.806Z,69.44
2018-12-21T21:40:15.868Z,69.33
2018-12-21T21:43:19.929Z,69.59
2018-12-21T21:46:23.896Z,70.33
2018-12-21T21:49:27.954Z,70.53
2018-12-21T21:52:31.936Z,70.92
2018-12-21T21:55:35.972Z,70.67
2018-12-21T21:58:39.909Z,71.45
2018-12-21T22:01:44.002Z,71.76
2018-12-21T22:04:47.942Z,71.72
2018-12-21T22:07:52.036Z,71.63
2018-12-21T22:11:01.751Z,73.13
2018-12-21T22:14:02.006Z,73.03
2018-12-21T22:17:05.986Z,73.76
2018-12-21T22:20:10.035Z,73.18
2018-12-21T22:23:13.990Z,72.56
2018-12-21T22:26:18.039Z,71.22
2018-12-21T22:29:22.013Z,70.63
2018-12-21T22:32:26.158Z,70.49
2018-12-21T22:35:30.098Z,69.71
2018-12-21T22:38:34.213Z,69.26
2018-12-21T22:41:38.173Z,69.06
2018-12-21T22:44:42.229Z,68.75
2018-12-21T22:47:46.160Z,68.92
2018-12-21T22:50:50.267Z,68.73
2018-12-21T22:53:54.197Z,68.64
2018-12-21T22:56:58.292Z,69.35
2018-12-21T23:00:02.313Z,68.21
2018-12-21T23:03:06.425Z,68.27
2018-12-21T23:06:10.379Z,68.09
2018-12-21T23:09:14.447Z,68.19
2018-12-21T23:12:18.396Z,68.00
2018-12-21T23:15:22.416Z,68.05
2018-12-21T23:18:26.432Z,67.76
2018-12-21T23:21:30.708Z,67.16
2018-12-21T23:24:34.683Z,67.15
2018-12-21T23:27:38.737Z,67.18
2018-12-21T23:30:42.672Z,67.88
2018-12-21T23:33:46.768Z,67.94
2018-12-21T23:36:50.697Z,67.69
2018-12-21T23:39:54.784Z,67.39
2018-12-21T23:42:58.729Z,67.34
2018-12-21T23:46:02.788Z,67.35
2018-12-21T23:49:06.723Z,66.86
2018-12-21T23:52:10.844Z,67.33
2018-12-21T23:55:14.773Z,67.10
2018-12-21T23:58:18.793Z,67.17
